Iowa Falls, Iowa
Current Conditions -  °F | °C
As of 11:55 AM on Friday 21 Nov 2014 (Local Time) from KIFA Reporting Station
Haze Haze  
Wind Chill: -10°   Ceiling: Unl
Heat Index: -3°   Visibility: 5mi
Dew Point: -8°   Wind: 18mph
Humidity: 67%   Direction: 150°SSE
Pressure: 30.22"   Gusts: 23mph
Location:  42.52°N, 93.26°W
Report Text: KIFA 211755Z AUTO 15016G20KT 5SM HZ CLR M03/M08 A3022 RMK AO2 T10301083 11030 21147
Loading
Personal Weather Stations






























Interactive Weather Map New forecast layout! Learn more

10-Day Weather Forecast

Advertisements
Track Severe Weather on mobile